sensor_id;sensor_type;location;lat;lon;timestamp;pressure;altitude;pressure_sealevel;temperature;humidity
75460;BME280;64039;53.060;9.342;2023-04-25T00:01:45;100170.03;;;6.54;100.00
75460;BME280;64039;53.060;9.342;2023-04-25T00:04:11;100188.69;;;6.42;100.00
75460;BME280;64039;53.060;9.342;2023-04-25T00:06:37;100181.59;;;6.67;100.00
75460;BME280;64039;53.060;9.342;2023-04-25T00:09:04;100189.69;;;6.80;100.00
75460;BME280;64039;53.060;9.342;2023-04-25T00:11:32;100184.34;;;6.41;100.00
75460;BME280;64039;53.060;9.342;2023-04-25T00:13:58;100195.56;;;6.42;100.00
75460;BME280;64039;53.060;9.342;2023-04-25T00:16:25;100189.47;;;6.40;100.00
75460;BME280;64039;53.060;9.342;2023-04-25T00:18:50;100208.56;;;6.45;100.00
75460;BME280;64039;53.060;9.342;2023-04-25T00:21:19;100211.59;;;6.30;100.00
75460;BME280;64039;53.060;9.342;2023-04-25T00:23:45;100219.47;;;6.04;100.00
75460;BME280;64039;53.060;9.342;2023-04-25T00:26:11;100211.63;;;6.01;100.00
75460;BME280;64039;53.060;9.342;2023-04-25T00:28:37;100209.03;;;6.01;100.00
75460;BME280;64039;53.060;9.342;2023-04-25T00:31:03;100220.03;;;5.95;100.00
75460;BME280;64039;53.060;9.342;2023-04-25T00:33:28;100225.03;;;5.91;100.00
75460;BME280;64039;53.060;9.342;2023-04-25T00:35:54;100219.22;;;5.98;100.00
75460;BME280;64039;53.060;9.342;2023-04-25T00:38:20;100228.53;;;5.91;100.00
75460;BME280;64039;53.060;9.342;2023-04-25T00:40:45;100226.66;;;5.87;100.00
75460;BME280;64039;53.060;9.342;2023-04-25T00:43:11;100224.69;;;5.78;100.00
75460;BME280;64039;53.060;9.342;2023-04-25T00:45:38;100226.63;;;5.86;100.00
75460;BME280;64039;53.060;9.342;2023-04-25T00:48:04;100230.09;;;5.88;100.00
75460;BME280;64039;53.060;9.342;2023-04-25T00:50:30;100228.28;;;5.83;100.00
75460;BME280;64039;53.060;9.342;2023-04-25T00:52:55;100225.84;;;5.88;100.00
75460;BME280;64039;53.060;9.342;2023-04-25T00:55:21;100230.69;;;5.77;100.00
75460;BME280;64039;53.060;9.342;2023-04-25T00:57:48;100230.53;;;6.00;100.00
75460;BME280;64039;53.060;9.342;2023-04-25T01:00:14;100226.00;;;5.94;100.00
75460;BME280;64039;53.060;9.342;2023-04-25T01:02:41;100232.91;;;5.94;100.00
75460;BME280;64039;53.060;9.342;2023-04-25T01:05:07;100235.91;;;5.80;100.00
75460;BME280;64039;53.060;9.342;2023-04-25T01:07:33;100235.78;;;5.76;100.00
75460;BME280;64039;53.060;9.342;2023-04-25T01:09:59;100231.47;;;5.75;100.00
75460;BME280;64039;53.060;9.342;2023-04-25T01:12:25;100236.00;;;5.82;100.00
75460;BME280;64039;53.060;9.342;2023-04-25T01:14:50;100230.59;;;5.76;100.00
75460;BME280;64039;53.060;9.342;2023-04-25T01:17:17;100231.50;;;5.76;100.00
75460;BME280;64039;53.060;9.342;2023-04-25T01:19:43;100236.41;;;5.69;100.00
75460;BME280;64039;53.060;9.342;2023-04-25T01:22:09;100233.53;;;5.59;100.00
75460;BME280;64039;53.060;9.342;2023-04-25T01:24:36;100237.94;;;5.62;100.00
75460;BME280;64039;53.060;9.342;2023-04-25T01:27:02;100243.00;;;5.59;100.00
75460;BME280;64039;53.060;9.342;2023-04-25T01:29:28;100240.47;;;5.60;100.00
75460;BME280;64039;53.060;9.342;2023-04-25T01:31:54;100242.50;;;5.43;100.00
75460;BME280;64039;53.060;9.342;2023-04-25T01:34:20;100249.81;;;5.57;100.00
75460;BME280;64039;53.060;9.342;2023-04-25T01:36:49;100245.91;;;5.42;100.00
75460;BME280;64039;53.060;9.342;2023-04-25T01:39:15;100253.13;;;5.53;100.00
75460;BME280;64039;53.060;9.342;2023-04-25T01:41:40;100248.78;;;5.51;100.00
75460;BME280;64039;53.060;9.342;2023-04-25T01:44:06;100252.59;;;5.63;100.00
75460;BME280;64039;53.060;9.342;2023-04-25T01:46:33;100262.47;;;5.49;100.00
75460;BME280;64039;53.060;9.342;2023-04-25T01:48:59;100257.81;;;5.37;100.00
75460;BME280;64039;53.060;9.342;2023-04-25T01:51:25;100267.19;;;5.35;100.00
75460;BME280;64039;53.060;9.342;2023-04-25T01:53:50;100261.88;;;5.30;100.00
75460;BME280;64039;53.060;9.342;2023-04-25T01:56:17;100271.75;;;5.18;100.00
75460;BME280;64039;53.060;9.342;2023-04-25T01:58:43;100270.44;;;5.29;100.00
75460;BME280;64039;53.060;9.342;2023-04-25T02:01:08;100268.31;;;5.17;100.00
75460;BME280;64039;53.060;9.342;2023-04-25T02:03:34;100277.06;;;5.23;100.00
75460;BME280;64039;53.060;9.342;2023-04-25T02:06:00;100278.94;;;5.27;100.00
75460;BME280;64039;53.060;9.342;2023-04-25T02:08:25;100281.72;;;5.07;100.00
75460;BME280;64039;53.060;9.342;2023-04-25T02:10:52;100278.78;;;5.22;100.00
75460;BME280;64039;53.060;9.342;2023-04-25T02:13:17;100273.94;;;5.06;100.00
75460;BME280;64039;53.060;9.342;2023-04-25T02:15:43;100283.88;;;4.95;100.00
75460;BME280;64039;53.060;9.342;2023-04-25T02:18:08;100288.47;;;5.03;100.00
75460;BME280;64039;53.060;9.342;2023-04-25T02:20:35;100293.75;;;5.07;100.00
75460;BME280;64039;53.060;9.342;2023-04-25T02:23:02;100291.41;;;5.14;100.00
75460;BME280;64039;53.060;9.342;2023-04-25T02:25:27;100298.94;;;5.08;100.00
75460;BME280;64039;53.060;9.342;2023-04-25T02:27:53;100293.66;;;5.05;100.00
75460;BME280;64039;53.060;9.342;2023-04-25T02:30:19;100290.34;;;4.83;100.00
75460;BME280;64039;53.060;9.342;2023-04-25T02:32:44;100292.28;;;4.89;100.00
75460;BME280;64039;53.060;9.342;2023-04-25T02:35:10;100298.56;;;4.97;100.00
75460;BME280;64039;53.060;9.342;2023-04-25T02:37:37;100300.09;;;4.92;100.00
75460;BME280;64039;53.060;9.342;2023-04-25T02:40:03;100300.78;;;4.86;100.00
75460;BME280;64039;53.060;9.342;2023-04-25T02:42:29;100296.59;;;4.90;100.00
75460;BME280;64039;53.060;9.342;2023-04-25T02:44:55;100297.13;;;4.81;100.00
75460;BME280;64039;53.060;9.342;2023-04-25T02:47:20;100297.19;;;4.83;100.00
75460;BME280;64039;53.060;9.342;2023-04-25T02:49:46;100305.41;;;4.97;100.00
75460;BME280;64039;53.060;9.342;2023-04-25T02:52:12;100303.28;;;4.85;100.00
75460;BME280;64039;53.060;9.342;2023-04-25T02:54:38;100306.75;;;4.85;100.00
75460;BME280;64039;53.060;9.342;2023-04-25T02:57:04;100308.53;;;4.86;100.00
75460;BME280;64039;53.060;9.342;2023-04-25T02:59:29;100312.78;;;4.86;100.00
75460;BME280;64039;53.060;9.342;2023-04-25T03:01:55;100311.09;;;4.86;100.00
75460;BME280;64039;53.060;9.342;2023-04-25T03:04:20;100316.00;;;4.80;100.00
75460;BME280;64039;53.060;9.342;2023-04-25T03:06:50;100307.66;;;4.87;100.00
75460;BME280;64039;53.060;9.342;2023-04-25T03:09:16;100312.44;;;4.77;100.00
75460;BME280;64039;53.060;9.342;2023-04-25T03:11:41;100310.41;;;4.68;100.00
75460;BME280;64039;53.060;9.342;2023-04-25T03:14:07;100307.84;;;4.68;100.00
75460;BME280;64039;53.060;9.342;2023-04-25T03:16:33;100306.72;;;4.61;100.00
75460;BME280;64039;53.060;9.342;2023-04-25T03:18:58;100303.63;;;4.47;100.00
75460;BME280;64039;53.060;9.342;2023-04-25T03:21:24;100303.41;;;4.41;100.00
75460;BME280;64039;53.060;9.342;2023-04-25T03:23:50;100304.34;;;4.43;100.00
75460;BME280;64039;53.060;9.342;2023-04-25T03:26:15;100296.22;;;4.32;100.00
75460;BME280;64039;53.060;9.342;2023-04-25T03:28:41;100310.72;;;4.30;100.00
75460;BME280;64039;53.060;9.342;2023-04-25T03:31:06;100311.59;;;4.31;100.00
75460;BME280;64039;53.060;9.342;2023-04-25T03:33:32;100294.84;;;4.42;100.00
75460;BME280;64039;53.060;9.342;2023-04-25T03:35:57;100299.53;;;4.52;100.00
75460;BME280;64039;53.060;9.342;2023-04-25T03:38:23;100306.94;;;4.43;100.00
75460;BME280;64039;53.060;9.342;2023-04-25T03:40:50;100306.94;;;4.43;100.00
75460;BME280;64039;53.060;9.342;2023-04-25T03:43:16;100312.94;;;4.44;100.00
75460;BME280;64039;53.060;9.342;2023-04-25T03:45:41;100314.09;;;4.52;100.00
75460;BME280;64039;53.060;9.342;2023-04-25T03:48:07;100312.72;;;4.37;100.00
75460;BME280;64039;53.060;9.342;2023-04-25T03:50:32;100315.53;;;4.44;100.00
75460;BME280;64039;53.060;9.342;2023-04-25T03:52:58;100326.66;;;4.43;100.00
75460;BME280;64039;53.060;9.342;2023-04-25T03:55:23;100324.97;;;4.43;100.00
75460;BME280;64039;53.060;9.342;2023-04-25T03:57:49;100328.53;;;4.47;100.00
75460;BME280;64039;53.060;9.342;2023-04-25T04:00:14;100330.47;;;4.52;100.00
75460;BME280;64039;53.060;9.342;2023-04-25T04:02:40;100341.28;;;4.66;100.00
75460;BME280;64039;53.060;9.342;2023-04-25T04:05:05;100342.69;;;4.58;100.00
75460;BME280;64039;53.060;9.342;2023-04-25T04:07:31;100339.38;;;4.61;100.00
75460;BME280;64039;53.060;9.342;2023-04-25T04:09:58;100345.75;;;4.70;100.00
75460;BME280;64039;53.060;9.342;2023-04-25T04:12:24;100341.66;;;4.53;100.00
75460;BME280;64039;53.060;9.342;2023-04-25T04:14:49;100343.22;;;4.49;100.00
75460;BME280;64039;53.060;9.342;2023-04-25T04:17:15;100353.34;;;4.67;100.00
75460;BME280;64039;53.060;9.342;2023-04-25T04:19:41;100361.81;;;4.63;100.00
75460;BME280;64039;53.060;9.342;2023-04-25T04:22:06;100367.28;;;4.50;100.00
75460;BME280;64039;53.060;9.342;2023-04-25T04:24:31;100354.34;;;4.48;100.00
75460;BME280;64039;53.060;9.342;2023-04-25T04:26:58;100366.28;;;4.46;100.00
75460;BME280;64039;53.060;9.342;2023-04-25T04:29:24;100367.28;;;4.50;100.00
75460;BME280;64039;53.060;9.342;2023-04-25T04:31:50;100370.53;;;4.44;100.00
75460;BME280;64039;53.060;9.342;2023-04-25T04:34:19;100365.44;;;4.46;100.00
75460;BME280;64039;53.060;9.342;2023-04-25T04:36:45;100384.06;;;4.38;100.00
75460;BME280;64039;53.060;9.342;2023-04-25T04:39:17;100367.66;;;4.36;100.00
75460;BME280;64039;53.060;9.342;2023-04-25T04:41:44;100376.31;;;4.38;100.00
75460;BME280;64039;53.060;9.342;2023-04-25T04:44:10;100379.59;;;4.34;100.00
75460;BME280;64039;53.060;9.342;2023-04-25T04:46:37;100390.31;;;4.45;100.00
75460;BME280;64039;53.060;9.342;2023-04-25T04:49:05;100386.47;;;4.56;100.00
75460;BME280;64039;53.060;9.342;2023-04-25T04:51:31;100391.19;;;4.68;100.00
75460;BME280;64039;53.060;9.342;2023-04-25T04:53:58;100394.78;;;4.72;100.00
75460;BME280;64039;53.060;9.342;2023-04-25T04:56:30;100406.78;;;4.71;100.00
75460;BME280;64039;53.060;9.342;2023-04-25T04:58:59;100407.56;;;4.69;100.00
75460;BME280;64039;53.060;9.342;2023-04-25T05:01:26;100407.06;;;4.56;100.00
75460;BME280;64039;53.060;9.342;2023-04-25T05:03:52;100403.50;;;4.76;100.00
75460;BME280;64039;53.060;9.342;2023-04-25T05:06:20;100406.16;;;4.77;100.00
75460;BME280;64039;53.060;9.342;2023-04-25T05:08:45;100409.84;;;4.61;100.00
75460;BME280;64039;53.060;9.342;2023-04-25T05:11:11;100409.56;;;4.76;100.00
75460;BME280;64039;53.060;9.342;2023-04-25T05:13:37;100415.69;;;4.80;100.00
75460;BME280;64039;53.060;9.342;2023-04-25T05:16:02;100408.78;;;4.79;100.00
75460;BME280;64039;53.060;9.342;2023-04-25T05:18:28;100421.81;;;4.82;100.00
75460;BME280;64039;53.060;9.342;2023-04-25T05:20:54;100416.94;;;4.67;100.00
75460;BME280;64039;53.060;9.342;2023-04-25T05:23:19;100421.72;;;4.80;100.00
75460;BME280;64039;53.060;9.342;2023-04-25T05:25:45;100422.72;;;4.84;100.00
75460;BME280;64039;53.060;9.342;2023-04-25T05:28:12;100426.13;;;4.83;100.00
75460;BME280;64039;53.060;9.342;2023-04-25T05:30:38;100435.56;;;4.82;100.00
75460;BME280;64039;53.060;9.342;2023-04-25T05:33:03;100428.69;;;4.83;100.00
75460;BME280;64039;53.060;9.342;2023-04-25T05:35:28;100426.25;;;4.86;100.00
75460;BME280;64039;53.060;9.342;2023-04-25T05:37:54;100431.97;;;5.01;100.00
75460;BME280;64039;53.060;9.342;2023-04-25T05:40:20;100432.72;;;5.22;100.00
75460;BME280;64039;53.060;9.342;2023-04-25T05:42:45;100437.22;;;5.27;100.00
75460;BME280;64039;53.060;9.342;2023-04-25T05:45:11;100437.78;;;5.18;100.00
75460;BME280;64039;53.060;9.342;2023-04-25T05:47:38;100438.53;;;4.93;100.00
75460;BME280;64039;53.060;9.342;2023-04-25T05:50:03;100442.00;;;5.16;100.00
75460;BME280;64039;53.060;9.342;2023-04-25T05:52:29;100441.72;;;5.33;100.00
75460;BME280;64039;53.060;9.342;2023-04-25T05:54:54;100439.97;;;5.32;100.00
75460;BME280;64039;53.060;9.342;2023-04-25T05:57:24;100444.78;;;5.23;100.00
75460;BME280;64039;53.060;9.342;2023-04-25T05:59:50;100449.69;;;5.15;100.00
75460;BME280;64039;53.060;9.342;2023-04-25T06:02:15;100453.88;;;5.35;100.00
75460;BME280;64039;53.060;9.342;2023-04-25T06:04:41;100455.47;;;5.32;100.00
75460;BME280;64039;53.060;9.342;2023-04-25T06:07:06;100462.09;;;5.25;100.00
75460;BME280;64039;53.060;9.342;2023-04-25T06:09:32;100468.03;;;5.23;100.00
75460;BME280;64039;53.060;9.342;2023-04-25T06:11:57;100469.16;;;5.07;100.00
75460;BME280;64039;53.060;9.342;2023-04-25T06:14:22;100462.63;;;5.16;100.00
75460;BME280;64039;53.060;9.342;2023-04-25T06:16:48;100462.22;;;5.28;100.00
75460;BME280;64039;53.060;9.342;2023-04-25T06:19:13;100466.94;;;5.40;100.00
75460;BME280;64039;53.060;9.342;2023-04-25T06:21:39;100472.09;;;5.40;100.00
75460;BME280;64039;53.060;9.342;2023-04-25T06:24:04;100476.16;;;5.33;99.83
75460;BME280;64039;53.060;9.342;2023-04-25T06:26:30;100475.97;;;5.51;100.00
75460;BME280;64039;53.060;9.342;2023-04-25T06:28:55;100472.44;;;5.49;100.00
75460;BME280;64039;53.060;9.342;2023-04-25T06:31:20;100476.44;;;5.90;100.00
75460;BME280;64039;53.060;9.342;2023-04-25T06:33:46;100474.59;;;5.61;99.28
75460;BME280;64039;53.060;9.342;2023-04-25T06:36:13;100475.13;;;5.77;99.49
75460;BME280;64039;53.060;9.342;2023-04-25T06:38:38;100476.09;;;5.80;99.02
75460;BME280;64039;53.060;9.342;2023-04-25T06:41:04;100478.84;;;5.85;98.44
75460;BME280;64039;53.060;9.342;2023-04-25T06:43:30;100484.03;;;5.61;98.63
75460;BME280;64039;53.060;9.342;2023-04-25T06:45:58;100489.25;;;5.62;99.28
75460;BME280;64039;53.060;9.342;2023-04-25T06:48:24;100484.03;;;5.61;99.47
75460;BME280;64039;53.060;9.342;2023-04-25T06:50:50;100477.28;;;5.64;100.00
75460;BME280;64039;53.060;9.342;2023-04-25T06:53:15;100475.25;;;5.80;100.00
75460;BME280;64039;53.060;9.342;2023-04-25T06:55:41;100475.78;;;5.71;98.14
75460;BME280;64039;53.060;9.342;2023-04-25T06:58:06;100485.78;;;5.86;99.74
75460;BME280;64039;53.060;9.342;2023-04-25T07:00:32;100487.22;;;6.02;97.79
75460;BME280;64039;53.060;9.342;2023-04-25T07:02:58;100492.31;;;6.01;99.14
75460;BME280;64039;53.060;9.342;2023-04-25T07:05:24;100492.81;;;5.90;93.81
75460;BME280;64039;53.060;9.342;2023-04-25T07:07:49;100506.41;;;5.85;95.26
75460;BME280;64039;53.060;9.342;2023-04-25T07:10:15;100492.59;;;5.84;93.40
75460;BME280;64039;53.060;9.342;2023-04-25T07:12:40;100503.78;;;5.83;95.35
75460;BME280;64039;53.060;9.342;2023-04-25T07:15:06;100488.03;;;5.77;93.27
75460;BME280;64039;53.060;9.342;2023-04-25T07:17:33;100505.94;;;5.72;95.19
75460;BME280;64039;53.060;9.342;2023-04-25T07:19:59;100509.69;;;5.80;95.34
75460;BME280;64039;53.060;9.342;2023-04-25T07:22:24;100508.78;;;5.78;93.93
75460;BME280;64039;53.060;9.342;2023-04-25T07:24:51;100521.06;;;5.86;94.59
75460;BME280;64039;53.060;9.342;2023-04-25T07:27:18;100514.47;;;5.70;96.99
75460;BME280;64039;53.060;9.342;2023-04-25T07:29:44;100520.94;;;5.58;94.88
75460;BME280;64039;53.060;9.342;2023-04-25T07:32:09;100527.50;;;5.73;99.51
75460;BME280;64039;53.060;9.342;2023-04-25T07:34:37;100517.19;;;5.73;99.10
75460;BME280;64039;53.060;9.342;2023-04-25T07:37:04;100522.72;;;5.83;97.10
75460;BME280;64039;53.060;9.342;2023-04-25T07:39:30;100532.56;;;5.94;95.69
75460;BME280;64039;53.060;9.342;2023-04-25T07:41:55;100531.16;;;5.79;91.96
75460;BME280;64039;53.060;9.342;2023-04-25T07:44:21;100540.06;;;6.10;91.98
75460;BME280;64039;53.060;9.342;2023-04-25T07:46:47;100533.91;;;6.07;89.46
75460;BME280;64039;53.060;9.342;2023-04-25T07:49:12;100534.09;;;6.13;90.42
75460;BME280;64039;53.060;9.342;2023-04-25T07:51:37;100543.25;;;6.03;88.70
75460;BME280;64039;53.060;9.342;2023-04-25T07:54:03;100542.97;;;6.20;89.73
75460;BME280;64039;53.060;9.342;2023-04-25T07:56:30;100563.34;;;6.12;87.76
75460;BME280;64039;53.060;9.342;2023-04-25T07:58:55;100553.03;;;6.12;89.80
75460;BME280;64039;53.060;9.342;2023-04-25T08:01:21;100549.91;;;5.98;87.88
75460;BME280;64039;53.060;9.342;2023-04-25T08:03:47;100558.47;;;6.20;87.80
75460;BME280;64039;53.060;9.342;2023-04-25T08:06:12;100556.13;;;6.27;88.02
75460;BME280;64039;53.060;9.342;2023-04-25T08:08:38;100552.09;;;6.36;87.34
75460;BME280;64039;53.060;9.342;2023-04-25T08:11:03;100552.53;;;6.48;88.46
75460;BME280;64039;53.060;9.342;2023-04-25T08:13:28;100545.25;;;6.36;87.29
75460;BME280;64039;53.060;9.342;2023-04-25T08:15:54;100553.88;;;6.63;89.27
75460;BME280;64039;53.060;9.342;2023-04-25T08:18:19;100558.94;;;6.34;87.07
75460;BME280;64039;53.060;9.342;2023-04-25T08:20:45;100577.25;;;6.40;84.96
75460;BME280;64039;53.060;9.342;2023-04-25T08:23:11;100572.75;;;6.34;83.26
75460;BME280;64039;53.060;9.342;2023-04-25T08:25:36;100567.22;;;6.49;80.56
75460;BME280;64039;53.060;9.342;2023-04-25T08:28:01;100566.03;;;6.92;81.50
75460;BME280;64039;53.060;9.342;2023-04-25T08:30:28;100555.41;;;7.11;81.42
75460;BME280;64039;53.060;9.342;2023-04-25T08:32:54;100571.53;;;7.31;80.54
75460;BME280;64039;53.060;9.342;2023-04-25T08:35:20;100585.47;;;7.07;80.90
75460;BME280;64039;53.060;9.342;2023-04-25T08:37:45;100575.19;;;6.83;79.46
75460;BME280;64039;53.060;9.342;2023-04-25T08:40:13;100582.41;;;6.91;82.17
75460;BME280;64039;53.060;9.342;2023-04-25T08:42:41;100584.06;;;6.89;82.10
75460;BME280;64039;53.060;9.342;2023-04-25T08:45:09;100589.88;;;6.56;79.08
75460;BME280;64039;53.060;9.342;2023-04-25T08:47:37;100604.56;;;6.57;80.03
75460;BME280;64039;53.060;9.342;2023-04-25T08:50:03;100588.97;;;6.56;80.92
75460;BME280;64039;53.060;9.342;2023-04-25T08:52:36;100604.59;;;6.59;80.37
75460;BME280;64039;53.060;9.342;2023-04-25T08:55:02;100597.34;;;6.74;80.07
75460;BME280;64039;53.060;9.342;2023-04-25T08:57:31;100606.09;;;6.78;80.73
75460;BME280;64039;53.060;9.342;2023-04-25T08:59:57;100614.75;;;6.53;80.03
75460;BME280;64039;53.060;9.342;2023-04-25T09:02:24;100618.72;;;6.69;78.11
75460;BME280;64039;53.060;9.342;2023-04-25T09:04:50;100607.84;;;6.79;81.80
75460;BME280;64039;53.060;9.342;2023-04-25T09:07:15;100607.03;;;6.80;78.29
75460;BME280;64039;53.060;9.342;2023-04-25T09:09:43;100610.56;;;6.82;79.20
75460;BME280;64039;53.060;9.342;2023-04-25T09:12:10;100604.56;;;6.83;72.79
75460;BME280;64039;53.060;9.342;2023-04-25T09:14:35;100611.69;;;7.18;78.17
75460;BME280;64039;53.060;9.342;2023-04-25T09:17:04;100611.09;;;6.99;74.40
75460;BME280;64039;53.060;9.342;2023-04-25T09:19:35;100610.53;;;7.08;72.47
75460;BME280;64039;53.060;9.342;2023-04-25T09:22:03;100616.09;;;7.20;76.38
75460;BME280;64039;53.060;9.342;2023-04-25T09:24:34;100611.19;;;7.30;72.14
75460;BME280;64039;53.060;9.342;2023-04-25T09:27:03;100619.56;;;7.21;73.25
75460;BME280;64039;53.060;9.342;2023-04-25T09:29:33;100629.97;;;7.51;71.06
75460;BME280;64039;53.060;9.342;2023-04-25T09:32:19;100634.75;;;7.66;76.62
75460;BME280;64039;53.060;9.342;2023-04-25T09:34:55;100631.72;;;7.80;74.24
75460;BME280;64039;53.060;9.342;2023-04-25T09:37:25;100632.72;;;7.56;71.98
75460;BME280;64039;53.060;9.342;2023-04-25T09:39:54;100634.13;;;8.04;79.27
75460;BME280;64039;53.060;9.342;2023-04-25T09:42:25;100637.50;;;8.01;77.01
75460;BME280;64039;53.060;9.342;2023-04-25T09:44:55;100633.38;;;7.78;74.39
75460;BME280;64039;53.060;9.342;2023-04-25T09:47:22;100616.53;;;7.63;70.87
75460;BME280;64039;53.060;9.342;2023-04-25T09:49:49;100635.06;;;8.08;72.66
75460;BME280;64039;53.060;9.342;2023-04-25T09:52:19;100646.25;;;8.05;63.60
75460;BME280;64039;53.060;9.342;2023-04-25T09:54:46;100638.97;;;8.22;63.63
75460;BME280;64039;53.060;9.342;2023-04-25T09:57:17;100640.06;;;8.30;68.30
75460;BME280;64039;53.060;9.342;2023-04-25T09:59:50;100638.38;;;8.02;68.61
75460;BME280;64039;53.060;9.342;2023-04-25T10:02:22;100651.53;;;7.79;68.38
75460;BME280;64039;53.060;9.342;2023-04-25T10:04:50;100649.75;;;7.77;71.89
75460;BME280;64039;53.060;9.342;2023-04-25T10:07:22;100663.84;;;7.86;75.05
75460;BME280;64039;53.060;9.342;2023-04-25T10:09:55;100666.56;;;7.35;77.37
75460;BME280;64039;53.060;9.342;2023-04-25T10:12:26;100698.84;;;6.91;77.63
75460;BME280;64039;53.060;9.342;2023-04-25T10:14:52;100709.72;;;6.33;77.96
75460;BME280;64039;53.060;9.342;2023-04-25T10:17:19;100704.66;;;5.90;80.40
75460;BME280;64039;53.060;9.342;2023-04-25T10:19:46;100702.59;;;5.81;77.31
75460;BME280;64039;53.060;9.342;2023-04-25T10:22:20;100711.03;;;5.77;80.54
75460;BME280;64039;53.060;9.342;2023-04-25T10:24:49;100707.38;;;5.72;82.60
75460;BME280;64039;53.060;9.342;2023-04-25T10:27:16;100716.81;;;5.93;84.00
75460;BME280;64039;53.060;9.342;2023-04-25T10:29:42;100715.25;;;5.98;85.83
75460;BME280;64039;53.060;9.342;2023-04-25T10:32:09;100721.47;;;6.02;86.29
75460;BME280;64039;53.060;9.342;2023-04-25T10:34:42;100717.78;;;5.96;87.84
75460;BME280;64039;53.060;9.342;2023-04-25T10:37:09;100717.47;;;6.33;87.66
75460;BME280;64039;53.060;9.342;2023-04-25T10:39:36;100709.66;;;6.55;86.10
75460;BME280;64039;53.060;9.342;2023-04-25T10:42:03;100693.50;;;6.87;83.73
75460;BME280;64039;53.060;9.342;2023-04-25T10:44:29;100696.34;;;7.20;87.22
75460;BME280;64039;53.060;9.342;2023-04-25T10:46:59;100698.47;;;7.06;79.45
75460;BME280;64039;53.060;9.342;2023-04-25T10:49:33;100711.56;;;7.11;76.97
75460;BME280;64039;53.060;9.342;2023-04-25T10:52:19;100696.69;;;7.59;80.28
75460;BME280;64039;53.060;9.342;2023-04-25T10:54:52;100699.00;;;7.49;79.35
75460;BME280;64039;53.060;9.342;2023-04-25T10:57:40;100691.63;;;7.91;78.96
75460;BME280;64039;53.060;9.342;2023-04-25T11:00:10;100687.59;;;8.00;74.24
75460;BME280;64039;53.060;9.342;2023-04-25T11:02:47;100680.59;;;8.27;80.29
75460;BME280;64039;53.060;9.342;2023-04-25T11:05:29;100688.84;;;8.45;76.51
75460;BME280;64039;53.060;9.342;2023-04-25T11:07:57;100679.56;;;8.22;74.52
75460;BME280;64039;53.060;9.342;2023-04-25T11:10:27;100678.59;;;8.18;68.33
75460;BME280;64039;53.060;9.342;2023-04-25T11:12:53;100683.16;;;8.27;64.50
75460;BME280;64039;53.060;9.342;2023-04-25T11:15:19;100677.78;;;8.83;64.91
75460;BME280;64039;53.060;9.342;2023-04-25T11:17:44;100682.16;;;9.19;63.01
75460;BME280;64039;53.060;9.342;2023-04-25T11:20:12;100675.53;;;9.32;63.11
75460;BME280;64039;53.060;9.342;2023-04-25T11:22:40;100677.53;;;9.42;62.05
75460;BME280;64039;53.060;9.342;2023-04-25T11:25:10;100681.13;;;9.49;64.02
75460;BME280;64039;53.060;9.342;2023-04-25T11:27:49;100685.22;;;9.38;65.74
75460;BME280;64039;53.060;9.342;2023-04-25T11:30:16;100686.63;;;9.25;65.71
75460;BME280;64039;53.060;9.342;2023-04-25T11:32:42;100686.72;;;8.94;62.99
75460;BME280;64039;53.060;9.342;2023-04-25T11:35:11;100690.47;;;8.72;64.18
75460;BME280;64039;53.060;9.342;2023-04-25T11:37:39;100707.44;;;8.59;68.30
75460;BME280;64039;53.060;9.342;2023-04-25T11:40:05;100719.75;;;8.07;64.02
75460;BME280;64039;53.060;9.342;2023-04-25T11:42:32;100715.59;;;7.56;71.29
75460;BME280;64039;53.060;9.342;2023-04-25T11:44:57;100717.94;;;7.21;75.65
75460;BME280;64039;53.060;9.342;2023-04-25T11:47:32;100734.13;;;6.89;77.85
75460;BME280;64039;53.060;9.342;2023-04-25T11:49:59;100739.28;;;6.89;83.27
75460;BME280;64039;53.060;9.342;2023-04-25T11:52:35;100731.22;;;7.06;82.98
75460;BME280;64039;53.060;9.342;2023-04-25T11:55:00;100741.47;;;7.03;73.78
75460;BME280;64039;53.060;9.342;2023-04-25T11:57:26;100738.56;;;7.19;71.57
75460;BME280;64039;53.060;9.342;2023-04-25T11:59:51;100748.69;;;7.37;67.63
75460;BME280;64039;53.060;9.342;2023-04-25T12:02:26;100746.34;;;7.45;66.78
75460;BME280;64039;53.060;9.342;2023-04-25T12:04:51;100744.13;;;7.85;67.58
75460;BME280;64039;53.060;9.342;2023-04-25T12:07:17;100749.97;;;8.07;65.86
75460;BME280;64039;53.060;9.342;2023-04-25T12:09:51;100739.06;;;7.88;61.58
75460;BME280;64039;53.060;9.342;2023-04-25T12:12:18;100744.09;;;8.12;60.67
75460;BME280;64039;53.060;9.342;2023-04-25T12:14:47;100741.00;;;8.53;62.00
75460;BME280;64039;53.060;9.342;2023-04-25T12:17:16;100744.03;;;8.70;60.89
75460;BME280;64039;53.060;9.342;2023-04-25T12:19:42;100744.69;;;8.61;58.53
75460;BME280;64039;53.060;9.342;2023-04-25T12:22:24;100768.25;;;8.40;62.14
75460;BME280;64039;53.060;9.342;2023-04-25T12:24:50;100775.06;;;8.08;64.99
75460;BME280;64039;53.060;9.342;2023-04-25T12:27:17;100777.22;;;8.21;68.26
75460;BME280;64039;53.060;9.342;2023-04-25T12:29:55;100770.94;;;8.14;67.42
75460;BME280;64039;53.060;9.342;2023-04-25T12:32:21;100777.38;;;8.27;68.74
75460;BME280;64039;53.060;9.342;2023-04-25T12:34:46;100771.22;;;8.53;69.20
75460;BME280;64039;53.060;9.342;2023-04-25T12:37:12;100789.59;;;8.59;66.80
75460;BME280;64039;53.060;9.342;2023-04-25T12:39:38;100803.88;;;8.17;66.71
75460;BME280;64039;53.060;9.342;2023-04-25T12:42:04;100778.75;;;7.87;69.45
75460;BME280;64039;53.060;9.342;2023-04-25T12:44:29;100795.81;;;7.53;68.41
75460;BME280;64039;53.060;9.342;2023-04-25T12:46:55;100795.72;;;7.51;70.09
75460;BME280;64039;53.060;9.342;2023-04-25T12:49:20;100813.38;;;6.87;73.77
75460;BME280;64039;53.060;9.342;2023-04-25T12:51:46;100823.69;;;6.86;74.22
75460;BME280;64039;53.060;9.342;2023-04-25T12:54:14;100800.00;;;6.99;76.50